sensor_id;sensor_type;location;lat;lon;timestamp;temperature;humidity
39875;DHT22;25547;52.530;13.194;2022-12-17T00:00:58;-0.80;99.90
39875;DHT22;25547;52.530;13.194;2022-12-17T00:03:42;-0.90;99.90
39875;DHT22;25547;52.530;13.194;2022-12-17T00:06:27;-0.90;99.90
39875;DHT22;25547;52.530;13.194;2022-12-17T00:09:11;-0.80;99.90
39875;DHT22;25547;52.530;13.194;2022-12-17T00:11:55;-0.80;99.90
39875;DHT22;25547;52.530;13.194;2022-12-17T00:14:39;-0.80;99.90
39875;DHT22;25547;52.530;13.194;2022-12-17T00:17:25;-0.70;99.90
39875;DHT22;25547;52.530;13.194;2022-12-17T00:20:10;-0.80;99.90
39875;DHT22;25547;52.530;13.194;2022-12-17T00:23:02;-0.80;99.90
39875;DHT22;25547;52.530;13.194;2022-12-17T00:25:54;-0.80;99.90
39875;DHT22;25547;52.530;13.194;2022-12-17T00:28:41;-0.90;99.90
39875;DHT22;25547;52.530;13.194;2022-12-17T00:31:29;-0.80;99.90
39875;DHT22;25547;52.530;13.194;2022-12-17T00:34:15;-0.80;99.90
39875;DHT22;25547;52.530;13.194;2022-12-17T00:37:02;-0.80;99.90
39875;DHT22;25547;52.530;13.194;2022-12-17T00:39:47;-0.80;99.90
39875;DHT22;25547;52.530;13.194;2022-12-17T00:42:31;-0.80;99.90
39875;DHT22;25547;52.530;13.194;2022-12-17T00:45:15;-0.90;99.90
39875;DHT22;25547;52.530;13.194;2022-12-17T00:47:59;-0.90;99.90
39875;DHT22;25547;52.530;13.194;2022-12-17T00:50:45;-0.90;99.90
39875;DHT22;25547;52.530;13.194;2022-12-17T00:53:30;-0.90;99.90
39875;DHT22;25547;52.530;13.194;2022-12-17T00:56:14;-0.80;99.90
39875;DHT22;25547;52.530;13.194;2022-12-17T00:58:58;-0.80;99.90
39875;DHT22;25547;52.530;13.194;2022-12-17T01:01:42;-0.70;99.90
39875;DHT22;25547;52.530;13.194;2022-12-17T01:04:26;-0.80;99.90
39875;DHT22;25547;52.530;13.194;2022-12-17T01:07:10;-0.70;99.90
39875;DHT22;25547;52.530;13.194;2022-12-17T01:09:54;-0.80;99.90
39875;DHT22;25547;52.530;13.194;2022-12-17T01:12:38;-0.70;99.90
39875;DHT22;25547;52.530;13.194;2022-12-17T01:15:22;-0.80;99.90
39875;DHT22;25547;52.530;13.194;2022-12-17T01:18:14;-0.90;99.90
39875;DHT22;25547;52.530;13.194;2022-12-17T01:20:59;-0.90;99.90
39875;DHT22;25547;52.530;13.194;2022-12-17T01:23:44;-0.90;99.90
39875;DHT22;25547;52.530;13.194;2022-12-17T01:26:31;-0.90;99.90
39875;DHT22;25547;52.530;13.194;2022-12-17T01:29:15;-0.90;99.90
39875;DHT22;25547;52.530;13.194;2022-12-17T01:31:59;-0.80;99.90
39875;DHT22;25547;52.530;13.194;2022-12-17T01:34:44;-0.80;99.90
39875;DHT22;25547;52.530;13.194;2022-12-17T01:37:28;-0.80;99.90
39875;DHT22;25547;52.530;13.194;2022-12-17T01:40:15;-0.90;99.90
39875;DHT22;25547;52.530;13.194;2022-12-17T01:42:59;-0.90;99.90
39875;DHT22;25547;52.530;13.194;2022-12-17T01:45:46;-0.90;99.90
39875;DHT22;25547;52.530;13.194;2022-12-17T01:48:37;-1.00;99.90
39875;DHT22;25547;52.530;13.194;2022-12-17T01:51:23;-0.90;99.90
39875;DHT22;25547;52.530;13.194;2022-12-17T01:54:08;-0.80;99.90
39875;DHT22;25547;52.530;13.194;2022-12-17T01:56:54;-0.90;99.90
39875;DHT22;25547;52.530;13.194;2022-12-17T02:02:32;-0.80;99.90
39875;DHT22;25547;52.530;13.194;2022-12-17T02:05:18;-0.80;99.90
39875;DHT22;25547;52.530;13.194;2022-12-17T02:14:07;-0.90;99.90
39875;DHT22;25547;52.530;13.194;2022-12-17T02:16:58;-0.90;99.90
39875;DHT22;25547;52.530;13.194;2022-12-17T02:26:01;-0.90;99.90
39875;DHT22;25547;52.530;13.194;2022-12-17T02:28:46;-0.90;99.90
39875;DHT22;25547;52.530;13.194;2022-12-17T02:31:32;-0.90;99.90
39875;DHT22;25547;52.530;13.194;2022-12-17T02:34:17;-1.00;99.90
39875;DHT22;25547;52.530;13.194;2022-12-17T02:37:02;-0.90;99.90
39875;DHT22;25547;52.530;13.194;2022-12-17T02:39:48;-1.00;99.90
39875;DHT22;25547;52.530;13.194;2022-12-17T02:42:35;-1.10;99.90
39875;DHT22;25547;52.530;13.194;2022-12-17T02:45:20;-1.00;99.90
39875;DHT22;25547;52.530;13.194;2022-12-17T02:48:06;-1.10;99.90
39875;DHT22;25547;52.530;13.194;2022-12-17T02:50:51;-0.90;99.90
39875;DHT22;25547;52.530;13.194;2022-12-17T02:53:43;-0.90;99.90
39875;DHT22;25547;52.530;13.194;2022-12-17T02:56:28;-0.90;99.90
39875;DHT22;25547;52.530;13.194;2022-12-17T02:59:12;-1.00;99.90
39875;DHT22;25547;52.530;13.194;2022-12-17T03:01:57;-0.90;99.90
39875;DHT22;25547;52.530;13.194;2022-12-17T03:04:41;-0.90;99.90
39875;DHT22;25547;52.530;13.194;2022-12-17T03:07:25;-0.90;99.90
39875;DHT22;25547;52.530;13.194;2022-12-17T03:10:09;-0.80;99.90
39875;DHT22;25547;52.530;13.194;2022-12-17T03:12:56;-0.80;99.90
39875;DHT22;25547;52.530;13.194;2022-12-17T03:15:40;-0.80;99.90
39875;DHT22;25547;52.530;13.194;2022-12-17T03:18:24;-0.90;99.90
39875;DHT22;25547;52.530;13.194;2022-12-17T03:21:08;-0.90;99.90
39875;DHT22;25547;52.530;13.194;2022-12-17T03:23:52;-1.00;99.90
39875;DHT22;25547;52.530;13.194;2022-12-17T03:26:39;-1.00;99.90
39875;DHT22;25547;52.530;13.194;2022-12-17T03:29:23;-0.90;99.90
39875;DHT22;25547;52.530;13.194;2022-12-17T03:32:07;-0.90;99.90
39875;DHT22;25547;52.530;13.194;2022-12-17T03:34:51;-0.90;99.90
39875;DHT22;25547;52.530;13.194;2022-12-17T03:37:35;-1.00;99.90
39875;DHT22;25547;52.530;13.194;2022-12-17T03:40:22;-1.00;99.90
39875;DHT22;25547;52.530;13.194;2022-12-17T03:43:07;-1.10;99.90
39875;DHT22;25547;52.530;13.194;2022-12-17T03:45:57;-1.10;99.90
39875;DHT22;25547;52.530;13.194;2022-12-17T03:48:46;-1.10;99.90
39875;DHT22;25547;52.530;13.194;2022-12-17T03:51:30;-1.10;99.90
39875;DHT22;25547;52.530;13.194;2022-12-17T03:54:14;-1.00;99.90
39875;DHT22;25547;52.530;13.194;2022-12-17T03:56:59;-1.00;99.90
39875;DHT22;25547;52.530;13.194;2022-12-17T03:59:45;-1.10;99.90
39875;DHT22;25547;52.530;13.194;2022-12-17T04:02:30;-1.10;99.90
39875;DHT22;25547;52.530;13.194;2022-12-17T04:05:16;-1.10;99.90
39875;DHT22;25547;52.530;13.194;2022-12-17T04:08:00;-1.10;99.90
39875;DHT22;25547;52.530;13.194;2022-12-17T04:10:49;-1.10;99.90
39875;DHT22;25547;52.530;13.194;2022-12-17T04:13:33;-1.00;99.90
39875;DHT22;25547;52.530;13.194;2022-12-17T04:16:18;-1.10;99.90
39875;DHT22;25547;52.530;13.194;2022-12-17T04:19:02;-1.10;99.90
39875;DHT22;25547;52.530;13.194;2022-12-17T04:21:46;-1.10;99.90
39875;DHT22;25547;52.530;13.194;2022-12-17T04:24:30;-1.20;99.90
39875;DHT22;25547;52.530;13.194;2022-12-17T04:27:14;-1.10;99.90
39875;DHT22;25547;52.530;13.194;2022-12-17T04:29:58;-1.10;99.90
39875;DHT22;25547;52.530;13.194;2022-12-17T04:32:42;-1.00;99.90
39875;DHT22;25547;52.530;13.194;2022-12-17T04:35:40;-1.10;99.90
39875;DHT22;25547;52.530;13.194;2022-12-17T04:38:25;-1.10;99.90
39875;DHT22;25547;52.530;13.194;2022-12-17T04:41:09;-1.10;99.90
39875;DHT22;25547;52.530;13.194;2022-12-17T04:43:53;-1.00;99.90
39875;DHT22;25547;52.530;13.194;2022-12-17T04:46:37;-1.00;99.90
39875;DHT22;25547;52.530;13.194;2022-12-17T04:49:23;-1.00;99.90
39875;DHT22;25547;52.530;13.194;2022-12-17T04:52:08;-1.00;99.90
39875;DHT22;25547;52.530;13.194;2022-12-17T04:54:54;-1.10;99.90
39875;DHT22;25547;52.530;13.194;2022-12-17T04:57:38;-1.10;99.90
39875;DHT22;25547;52.530;13.194;2022-12-17T05:00:23;-1.10;99.90
39875;DHT22;25547;52.530;13.194;2022-12-17T05:03:12;-1.10;99.90
39875;DHT22;25547;52.530;13.194;2022-12-17T05:06:00;-1.00;99.90
39875;DHT22;25547;52.530;13.194;2022-12-17T05:08:44;-1.00;99.90
39875;DHT22;25547;52.530;13.194;2022-12-17T05:11:28;-1.00;99.90
39875;DHT22;25547;52.530;13.194;2022-12-17T05:14:17;-0.90;99.90
39875;DHT22;25547;52.530;13.194;2022-12-17T05:17:01;-0.90;99.90
39875;DHT22;25547;52.530;13.194;2022-12-17T05:19:47;-1.00;99.90
39875;DHT22;25547;52.530;13.194;2022-12-17T05:22:32;-1.00;99.90
39875;DHT22;25547;52.530;13.194;2022-12-17T05:25:16;-1.00;99.90
39875;DHT22;25547;52.530;13.194;2022-12-17T05:28:00;-1.10;99.90
39875;DHT22;25547;52.530;13.194;2022-12-17T05:30:55;-1.10;99.90
39875;DHT22;25547;52.530;13.194;2022-12-17T05:33:42;-1.00;99.90
39875;DHT22;25547;52.530;13.194;2022-12-17T05:36:26;-1.00;99.90
39875;DHT22;25547;52.530;13.194;2022-12-17T05:39:10;-1.00;99.90
39875;DHT22;25547;52.530;13.194;2022-12-17T05:41:57;-1.10;99.90
39875;DHT22;25547;52.530;13.194;2022-12-17T05:44:41;-1.00;99.90
39875;DHT22;25547;52.530;13.194;2022-12-17T05:47:25;-1.10;99.90
39875;DHT22;25547;52.530;13.194;2022-12-17T05:50:11;-1.20;99.90
39875;DHT22;25547;52.530;13.194;2022-12-17T05:53:03;-1.20;99.90
39875;DHT22;25547;52.530;13.194;2022-12-17T05:55:52;-1.20;99.90
39875;DHT22;25547;52.530;13.194;2022-12-17T05:58:39;-1.20;99.90
39875;DHT22;25547;52.530;13.194;2022-12-17T06:01:23;-1.30;99.90
39875;DHT22;25547;52.530;13.194;2022-12-17T06:04:08;-1.30;99.90
39875;DHT22;25547;52.530;13.194;2022-12-17T06:06:53;-1.30;99.90
39875;DHT22;25547;52.530;13.194;2022-12-17T06:09:37;-1.20;99.90
39875;DHT22;25547;52.530;13.194;2022-12-17T06:12:21;-1.10;99.90
39875;DHT22;25547;52.530;13.194;2022-12-17T06:15:05;-1.00;99.90
39875;DHT22;25547;52.530;13.194;2022-12-17T06:17:54;-1.00;99.90
39875;DHT22;25547;52.530;13.194;2022-12-17T06:20:39;-1.10;99.90
39875;DHT22;25547;52.530;13.194;2022-12-17T06:23:23;-1.00;99.90
39875;DHT22;25547;52.530;13.194;2022-12-17T06:26:07;-1.00;99.90
39875;DHT22;25547;52.530;13.194;2022-12-17T06:28:52;-1.00;99.90
39875;DHT22;25547;52.530;13.194;2022-12-17T06:31:36;-1.00;99.90
39875;DHT22;25547;52.530;13.194;2022-12-17T06:34:20;-1.10;99.90
39875;DHT22;25547;52.530;13.194;2022-12-17T06:37:04;-1.10;99.90
39875;DHT22;25547;52.530;13.194;2022-12-17T06:39:48;-1.20;99.90
39875;DHT22;25547;52.530;13.194;2022-12-17T06:42:35;-1.20;99.90
39875;DHT22;25547;52.530;13.194;2022-12-17T06:45:19;-1.10;99.90
39875;DHT22;25547;52.530;13.194;2022-12-17T06:48:23;-1.10;99.90
39875;DHT22;25547;52.530;13.194;2022-12-17T06:51:07;-1.10;99.90
39875;DHT22;25547;52.530;13.194;2022-12-17T06:53:54;-1.00;99.90
39875;DHT22;25547;52.530;13.194;2022-12-17T06:56:38;-1.10;99.90
39875;DHT22;25547;52.530;13.194;2022-12-17T06:59:22;-1.10;99.90
39875;DHT22;25547;52.530;13.194;2022-12-17T07:02:10;-1.10;99.90
39875;DHT22;25547;52.530;13.194;2022-12-17T07:04:55;-1.10;99.90
39875;DHT22;25547;52.530;13.194;2022-12-17T07:07:39;-1.10;99.90
39875;DHT22;25547;52.530;13.194;2022-12-17T07:10:23;-1.10;99.90
39875;DHT22;25547;52.530;13.194;2022-12-17T07:13:12;-1.00;99.90
39875;DHT22;25547;52.530;13.194;2022-12-17T07:15:56;-1.00;99.90
39875;DHT22;25547;52.530;13.194;2022-12-17T07:18:40;-1.10;99.90
39875;DHT22;25547;52.530;13.194;2022-12-17T07:21:25;-1.00;99.90
39875;DHT22;25547;52.530;13.194;2022-12-17T07:24:10;-1.00;99.90
39875;DHT22;25547;52.530;13.194;2022-12-17T07:26:54;-0.80;99.90
39875;DHT22;25547;52.530;13.194;2022-12-17T07:29:38;-0.70;99.90
39875;DHT22;25547;52.530;13.194;2022-12-17T07:32:22;-0.80;99.90
39875;DHT22;25547;52.530;13.194;2022-12-17T07:35:07;-0.90;99.90
39875;DHT22;25547;52.530;13.194;2022-12-17T07:38:01;-0.90;99.90
39875;DHT22;25547;52.530;13.194;2022-12-17T07:40:45;-0.90;99.90
39875;DHT22;25547;52.530;13.194;2022-12-17T07:43:30;-1.00;99.90
39875;DHT22;25547;52.530;13.194;2022-12-17T07:46:16;-0.80;99.90
39875;DHT22;25547;52.530;13.194;2022-12-17T07:49:01;-0.80;99.90
39875;DHT22;25547;52.530;13.194;2022-12-17T07:51:45;-0.80;99.90
39875;DHT22;25547;52.530;13.194;2022-12-17T07:54:43;-0.80;99.90
39875;DHT22;25547;52.530;13.194;2022-12-17T07:57:27;-0.80;99.90
39875;DHT22;25547;52.530;13.194;2022-12-17T08:00:12;-0.80;99.90
39875;DHT22;25547;52.530;13.194;2022-12-17T08:02:57;-0.80;99.90
39875;DHT22;25547;52.530;13.194;2022-12-17T08:05:42;-0.80;99.90
39875;DHT22;25547;52.530;13.194;2022-12-17T08:08:26;-0.80;99.90
39875;DHT22;25547;52.530;13.194;2022-12-17T08:11:10;-0.90;99.90
39875;DHT22;25547;52.530;13.194;2022-12-17T08:13:54;-0.80;99.90
39875;DHT22;25547;52.530;13.194;2022-12-17T08:16:38;-0.80;99.90
39875;DHT22;25547;52.530;13.194;2022-12-17T08:19:22;-0.80;99.90
39875;DHT22;25547;52.530;13.194;2022-12-17T08:22:06;-1.00;99.90
39875;DHT22;25547;52.530;13.194;2022-12-17T08:24:51;-1.00;99.90
39875;DHT22;25547;52.530;13.194;2022-12-17T08:27:35;-1.00;99.90
39875;DHT22;25547;52.530;13.194;2022-12-17T08:30:19;-0.90;99.90
39875;DHT22;25547;52.530;13.194;2022-12-17T08:33:06;-0.90;99.90
39875;DHT22;25547;52.530;13.194;2022-12-17T08:35:52;-0.80;99.90
39875;DHT22;25547;52.530;13.194;2022-12-17T08:38:36;-0.80;99.90
39875;DHT22;25547;52.530;13.194;2022-12-17T08:41:20;-0.90;99.90
39875;DHT22;25547;52.530;13.194;2022-12-17T08:44:04;-0.90;99.90
39875;DHT22;25547;52.530;13.194;2022-12-17T08:46:49;-0.80;99.90
39875;DHT22;25547;52.530;13.194;2022-12-17T08:49:35;-0.70;99.90
39875;DHT22;25547;52.530;13.194;2022-12-17T08:52:19;-0.80;99.90
39875;DHT22;25547;52.530;13.194;2022-12-17T08:55:07;-0.90;99.90
39875;DHT22;25547;52.530;13.194;2022-12-17T08:57:54;-1.00;99.90
39875;DHT22;25547;52.530;13.194;2022-12-17T09:00:39;-1.00;99.90
39875;DHT22;25547;52.530;13.194;2022-12-17T09:03:23;-1.10;99.90
39875;DHT22;25547;52.530;13.194;2022-12-17T09:06:08;-1.00;99.90
39875;DHT22;25547;52.530;13.194;2022-12-17T09:08:53;-0.90;99.90
39875;DHT22;25547;52.530;13.194;2022-12-17T09:11:37;-0.90;99.90
39875;DHT22;25547;52.530;13.194;2022-12-17T09:14:21;-0.80;99.90
39875;DHT22;25547;52.530;13.194;2022-12-17T09:17:06;-0.90;99.90
39875;DHT22;25547;52.530;13.194;2022-12-17T09:19:54;-0.90;99.90
39875;DHT22;25547;52.530;13.194;2022-12-17T09:22:39;-0.80;99.90
39875;DHT22;25547;52.530;13.194;2022-12-17T09:25:23;-1.00;99.90
39875;DHT22;25547;52.530;13.194;2022-12-17T09:28:08;-0.90;99.90
39875;DHT22;25547;52.530;13.194;2022-12-17T09:30:56;-0.90;99.90
39875;DHT22;25547;52.530;13.194;2022-12-17T09:33:40;-0.80;99.90
39875;DHT22;25547;52.530;13.194;2022-12-17T09:36:25;-0.90;99.90
39875;DHT22;25547;52.530;13.194;2022-12-17T09:39:09;-0.90;99.90
39875;DHT22;25547;52.530;13.194;2022-12-17T09:44:58;-0.80;99.90
39875;DHT22;25547;52.530;13.194;2022-12-17T09:50:42;-0.50;99.90
39875;DHT22;25547;52.530;13.194;2022-12-17T09:53:53;-0.70;99.90
39875;DHT22;25547;52.530;13.194;2022-12-17T09:56:41;-0.80;99.90
39875;DHT22;25547;52.530;13.194;2022-12-17T09:59:28;-0.90;99.90
39875;DHT22;25547;52.530;13.194;2022-12-17T10:02:21;-0.90;99.90
39875;DHT22;25547;52.530;13.194;2022-12-17T10:05:17;-0.90;99.90
39875;DHT22;25547;52.530;13.194;2022-12-17T10:08:05;-0.90;99.90
39875;DHT22;25547;52.530;13.194;2022-12-17T10:10:52;-0.70;99.90
39875;DHT22;25547;52.530;13.194;2022-12-17T10:13:37;-0.60;99.90
39875;DHT22;25547;52.530;13.194;2022-12-17T10:16:32;-0.70;99.90
39875;DHT22;25547;52.530;13.194;2022-12-17T10:19:38;-0.90;99.90
39875;DHT22;25547;52.530;13.194;2022-12-17T10:22:27;-1.00;99.90
39875;DHT22;25547;52.530;13.194;2022-12-17T10:25:21;-1.10;99.90
39875;DHT22;25547;52.530;13.194;2022-12-17T10:28:10;-1.00;99.90
39875;DHT22;25547;52.530;13.194;2022-12-17T10:30:57;-0.90;99.90
39875;DHT22;25547;52.530;13.194;2022-12-17T10:33:44;-1.00;99.90
39875;DHT22;25547;52.530;13.194;2022-12-17T10:36:29;-1.00;99.90
39875;DHT22;25547;52.530;13.194;2022-12-17T10:39:20;-1.00;99.90
39875;DHT22;25547;52.530;13.194;2022-12-17T10:42:25;-1.00;99.90
39875;DHT22;25547;52.530;13.194;2022-12-17T10:45:31;-1.10;99.90
39875;DHT22;25547;52.530;13.194;2022-12-17T10:48:33;-1.10;99.90
39875;DHT22;25547;52.530;13.194;2022-12-17T10:51:30;-1.00;99.90
39875;DHT22;25547;52.530;13.194;2022-12-17T10:57:05;-0.90;99.90
39875;DHT22;25547;52.530;13.194;2022-12-17T10:59:50;-0.80;99.90
39875;DHT22;25547;52.530;13.194;2022-12-17T11:02:35;-0.80;99.90
39875;DHT22;25547;52.530;13.194;2022-12-17T11:05:26;-0.80;99.90
39875;DHT22;25547;52.530;13.194;2022-12-17T11:08:15;-0.80;99.90
39875;DHT22;25547;52.530;13.194;2022-12-17T11:11:06;-0.90;99.90
39875;DHT22;25547;52.530;13.194;2022-12-17T11:13:54;-0.80;99.90
39875;DHT22;25547;52.530;13.194;2022-12-17T11:16:52;-0.90;99.90
39875;DHT22;25547;52.530;13.194;2022-12-17T11:19:42;-1.00;99.90
39875;DHT22;25547;52.530;13.194;2022-12-17T11:22:41;-1.00;99.90
39875;DHT22;25547;52.530;13.194;2022-12-17T11:28:27;-1.00;99.90
39875;DHT22;25547;52.530;13.194;2022-12-17T11:34:06;-0.90;99.90
39875;DHT22;25547;52.530;13.194;2022-12-17T11:42:43;-0.80;99.90
39875;DHT22;25547;52.530;13.194;2022-12-17T11:46:08;-0.80;99.90
39875;DHT22;25547;52.530;13.194;2022-12-17T11:55:20;-0.80;99.90
39875;DHT22;25547;52.530;13.194;2022-12-17T11:58:39;-0.80;99.90
39875;DHT22;25547;52.530;13.194;2022-12-17T12:08:29;-0.80;99.90
39875;DHT22;25547;52.530;13.194;2022-12-17T12:11:30;-0.90;99.90
39875;DHT22;25547;52.530;13.194;2022-12-17T12:17:36;-1.00;99.90
39875;DHT22;25547;52.530;13.194;2022-12-17T12:26:29;-1.20;99.90
39875;DHT22;25547;52.530;13.194;2022-12-17T12:35:24;-1.10;99.90
39875;DHT22;25547;52.530;13.194;2022-12-17T12:38:20;-1.10;99.90
39875;DHT22;25547;52.530;13.194;2022-12-17T12:47:21;-1.00;99.90
39875;DHT22;25547;52.530;13.194;2022-12-17T12:50:34;-1.00;99.90
39875;DHT22;25547;52.530;13.194;2022-12-17T12:53:25;-1.00;99.90
39875;DHT22;25547;52.530;13.194;2022-12-17T12:56:30;-1.00;99.90
39875;DHT22;25547;52.530;13.194;2022-12-17T13:02:24;-0.90;99.90
39875;DHT22;25547;52.530;13.194;2022-12-17T13:05:38;-0.80;99.90
39875;DHT22;25547;52.530;13.194;2022-12-17T13:08:21;-1.20;99.90
39875;DHT22;25547;52.530;13.194;2022-12-17T13:10:52;-1.20;99.90
39875;DHT22;25547;52.530;13.194;2022-12-17T13:13:22;-1.20;99.90
39875;DHT22;25547;52.530;13.194;2022-12-17T13:15:53;-1.20;99.90
39875;DHT22;25547;52.530;13.194;2022-12-17T13:23:33;-1.00;99.90
39875;DHT22;25547;52.530;13.194;2022-12-17T13:31:24;-1.10;99.90
39875;DHT22;25547;52.530;13.194;2022-12-17T13:41:59;-0.90;99.90
39875;DHT22;25547;52.530;13.194;2022-12-17T13:44:46;-1.10;99.90
39875;DHT22;25547;52.530;13.194;2022-12-17T13:47:27;-1.10;99.90
39875;DHT22;25547;52.530;13.194;2022-12-17T13:49:55;-1.10;99.90
39875;DHT22;25547;52.530;13.194;2022-12-17T13:52:24;-1.20;99.90
39875;DHT22;25547;52.530;13.194;2022-12-17T13:54:50;-1.10;99.90
39875;DHT22;25547;52.530;13.194;2022-12-17T13:57:18;-1.20;99.90
39875;DHT22;25547;52.530;13.194;2022-12-17T13:59:52;-1.30;99.90
39875;DHT22;25547;52.530;13.194;2022-12-17T14:02:27;-1.40;99.90
39875;DHT22;25547;52.530;13.194;2022-12-17T14:05:00;-1.40;99.90
39875;DHT22;25547;52.530;13.194;2022-12-17T14:07:27;-1.40;99.90
39875;DHT22;25547;52.530;13.194;2022-12-17T14:09:55;-1.20;99.90
39875;DHT22;25547;52.530;13.194;2022-12-17T14:12:24;-1.20;99.90
39875;DHT22;25547;52.530;13.194;2022-12-17T14:15:20;-1.20;99.90
39875;DHT22;25547;52.530;13.194;2022-12-17T14:17:48;-1.10;99.90
39875;DHT22;25547;52.530;13.194;2022-12-17T14:20:21;-1.10;99.90
39875;DHT22;25547;52.530;13.194;2022-12-17T14:22:53;-1.20;99.90
39875;DHT22;25547;52.530;13.194;2022-12-17T14:25:25;-1.30;99.90
39875;DHT22;25547;52.530;13.194;2022-12-17T14:27:55;-1.30;99.90
39875;DHT22;25547;52.530;13.194;2022-12-17T14:30:42;-1.20;99.90
39875;DHT22;25547;52.530;13.194;2022-12-17T14:33:34;-1.20;99.90
39875;DHT22;25547;52.530;13.194;2022-12-17T14:36:06;-1.30;99.90
39875;DHT22;25547;52.530;13.194;2022-12-17T14:38:33;-1.40;99.90
39875;DHT22;25547;52.530;13.194;2022-12-17T14:41:11;-1.40;99.90
39875;DHT22;25547;52.530;13.194;2022-12-17T14:44:00;-1.40;99.90
39875;DHT22;25547;52.530;13.194;2022-12-17T14:46:30;-1.40;99.90
39875;DHT22;25547;52.530;13.194;2022-12-17T14:48:57;-1.40;99.90
39875;DHT22;25547;52.530;13.194;2022-12-17T14:51:36;-1.40;99.90
39875;DHT22;25547;52.530;13.194;2022-12-17T14:56:48;-1.50;99.90
39875;DHT22;25547;52.530;13.194;2022-12-17T15:01:52;-1.40;99.90
39875;DHT22;25547;52.530;13.194;2022-12-17T15:04:21;-1.40;99.90
39875;DHT22;25547;52.530;13.194;2022-12-17T15:06:52;-1.40;99.90
39875;DHT22;25547;52.530;13.194;2022-12-17T15:09:19;-1.30;99.90
39875;DHT22;25547;52.530;13.194;2022-12-17T15:11:45;-1.30;99.90
39875;DHT22;25547;52.530;13.194;2022-12-17T15:14:10;-1.30;99.90
39875;DHT22;25547;52.530;13.194;2022-12-17T15:16:36;-1.40;99.90
39875;DHT22;25547;52.530;13.194;2022-12-17T15:19:01;-1.50;99.90
39875;DHT22;25547;52.530;13.194;2022-12-17T15:21:29;-1.50;99.90
39875;DHT22;25547;52.530;13.194;2022-12-17T15:23:55;-1.50;99.90
39875;DHT22;25547;52.530;13.194;2022-12-17T15:26:21;-1.50;99.90
39875;DHT22;25547;52.530;13.194;2022-12-17T15:28:49;-1.50;99.90
39875;DHT22;25547;52.530;13.194;2022-12-17T15:31:15;-1.50;99.90
39875;DHT22;25547;52.530;13.194;2022-12-17T15:33:41;-1.50;99.90
39875;DHT22;25547;52.530;13.194;2022-12-17T15:36:11;-1.50;99.90
39875;DHT22;25547;52.530;13.194;2022-12-17T15:38:37;-1.60;99.90
39875;DHT22;25547;52.530;13.194;2022-12-17T15:41:05;-1.60;99.90
39875;DHT22;25547;52.530;13.194;2022-12-17T15:43:49;-1.60;99.90
39875;DHT22;25547;52.530;13.194;2022-12-17T15:46:15;-1.60;99.90
39875;DHT22;25547;52.530;13.194;2022-12-17T15:48:41;-1.50;99.90
39875;DHT22;25547;52.530;13.194;2022-12-17T15:51:09;-1.60;99.90
39875;DHT22;25547;52.530;13.194;2022-12-17T15:53:35;-1.60;99.90
39875;DHT22;25547;52.530;13.194;2022-12-17T15:56:03;-1.60;99.90
39875;DHT22;25547;52.530;13.194;2022-12-17T15:58:29;-1.70;99.90
39875;DHT22;25547;52.530;13.194;2022-12-17T16:00:55;-1.80;99.90
39875;DHT22;25547;52.530;13.194;2022-12-17T16:03:26;-1.70;99.90
39875;DHT22;25547;52.530;13.194;2022-12-17T16:05:55;-1.80;99.90
39875;DHT22;25547;52.530;13.194;2022-12-17T16:08:23;-1.80;99.90
39875;DHT22;25547;52.530;13.194;2022-12-17T16:10:51;-1.80;99.90
39875;DHT22;25547;52.530;13.194;2022-12-17T16:13:19;-1.80;99.90
39875;DHT22;25547;52.530;13.194;2022-12-17T16:16:03;-1.70;99.90
39875;DHT22;25547;52.530;13.194;2022-12-17T16:18:29;-1.60;99.90
39875;DHT22;25547;52.530;13.194;2022-12-17T16:21:01;-1.70;99.90
39875;DHT22;25547;52.530;13.194;2022-12-17T16:23:30;-1.70;99.90
39875;DHT22;25547;52.530;13.194;2022-12-17T16:25:57;-1.70;99.90
39875;DHT22;25547;52.530;13.194;2022-12-17T16:28:26;-1.70;99.90
39875;DHT22;25547;52.530;13.194;2022-12-17T16:31:02;-1.70;99.90
39875;DHT22;25547;52.530;13.194;2022-12-17T16:33:32;-1.70;99.90
39875;DHT22;25547;52.530;13.194;2022-12-17T16:35:58;-1.70;99.90
39875;DHT22;25547;52.530;13.194;2022-12-17T16:38:27;-1.90;99.90
39875;DHT22;25547;52.530;13.194;2022-12-17T16:40:55;-1.80;99.90
39875;DHT22;25547;52.530;13.194;2022-12-17T16:43:20;-1.80;99.90
39875;DHT22;25547;52.530;13.194;2022-12-17T16:45:50;-1.80;99.90
39875;DHT22;25547;52.530;13.194;2022-12-17T16:48:16;-1.80;99.90
39875;DHT22;25547;52.530;13.194;2022-12-17T16:50:44;-1.90;99.90
39875;DHT22;25547;52.530;13.194;2022-12-17T16:53:10;-1.80;99.90
39875;DHT22;25547;52.530;13.194;2022-12-17T16:55:44;-1.70;99.90
39875;DHT22;25547;52.530;13.194;2022-12-17T16:58:13;-1.70;99.90
39875;DHT22;25547;52.530;13.194;2022-12-17T17:00:39;-1.70;99.90
39875;DHT22;25547;52.530;13.194;2022-12-17T17:03:06;-1.60;99.90
39875;DHT22;25547;52.530;13.194;2022-12-17T17:05:34;-1.60;99.90
39875;DHT22;25547;52.530;13.194;2022-12-17T17:08:00;-1.60;99.90
39875;DHT22;25547;52.530;13.194;2022-12-17T17:10:27;-1.50;99.90
39875;DHT22;25547;52.530;13.194;2022-12-17T17:12:53;-1.50;99.90
39875;DHT22;25547;52.530;13.194;2022-12-17T17:15:20;-1.50;99.90
39875;DHT22;25547;52.530;13.194;2022-12-17T17:17:49;-1.40;99.90
39875;DHT22;25547;52.530;13.194;2022-12-17T17:20:17;-1.50;99.90
39875;DHT22;25547;52.530;13.194;2022-12-17T17:22:47;-1.40;99.90
39875;DHT22;25547;52.530;13.194;2022-12-17T17:25:13;-1.50;99.90
39875;DHT22;25547;52.530;13.194;2022-12-17T17:27:39;-1.60;99.90
39875;DHT22;25547;52.530;13.194;2022-12-17T17:30:05;-1.50;99.90
39875;DHT22;25547;52.530;13.194;2022-12-17T17:32:35;-1.60;99.90
39875;DHT22;25547;52.530;13.194;2022-12-17T17:35:00;-1.70;99.90
39875;DHT22;25547;52.530;13.194;2022-12-17T17:37:26;-1.50;99.90
39875;DHT22;25547;52.530;13.194;2022-12-17T17:39:52;-1.60;99.90
39875;DHT22;25547;52.530;13.194;2022-12-17T17:42:20;-1.60;99.90
39875;DHT22;25547;52.530;13.194;2022-12-17T17:44:48;-1.70;99.90
39875;DHT22;25547;52.530;13.194;2022-12-17T17:47:14;-1.70;99.90
39875;DHT22;25547;52.530;13.194;2022-12-17T17:49:40;-1.60;99.90
39875;DHT22;25547;52.530;13.194;2022-12-17T17:52:06;-1.60;99.90
39875;DHT22;25547;52.530;13.194;2022-12-17T17:54:32;-1.60;99.90
39875;DHT22;25547;52.530;13.194;2022-12-17T17:57:00;-1.60;99.90
39875;DHT22;25547;52.530;13.194;2022-12-17T17:59:25;-1.60;99.90
39875;DHT22;25547;52.530;13.194;2022-12-17T18:01:51;-1.60;99.90
39875;DHT22;25547;52.530;13.194;2022-12-17T18:04:19;-1.70;99.90
39875;DHT22;25547;52.530;13.194;2022-12-17T18:06:46;-2.00;99.90
39875;DHT22;25547;52.530;13.194;2022-12-17T18:09:13;-2.10;99.90
39875;DHT22;25547;52.530;13.194;2022-12-17T18:11:40;-2.10;99.90
39875;DHT22;25547;52.530;13.194;2022-12-17T18:14:08;-2.10;99.90
39875;DHT22;25547;52.530;13.194;2022-12-17T18:16:47;-2.20;99.90
39875;DHT22;25547;52.530;13.194;2022-12-17T18:19:21;-2.30;99.90
39875;DHT22;25547;52.530;13.194;2022-12-17T18:21:48;-2.30;99.90